Time;durP1;ratioP1;P1;durP2;ratioP2;P2;SDS_P1;SDS_P2;PMS_P1;PMS_P2;Temp;Humidity;BMP_temperature;BMP_pressure;BME280_temperature;BME280_humidity;BME280_pressure;Samples;Min_cycle;Max_cycle;Signal;HPM_P1;HPM_P2
2022/12/18 00:01:17;;;;;;;;;54.33;46.67;;;;;-1.02;65.46;101872.38;5071495;28;45402;-59
2022/12/18 00:03:42;;;;;;;;;66.67;45.00;;;;;-0.99;65.26;101866.31;5074869;28;45630;-61
2022/12/18 00:06:08;;;;;;;;;51.67;42.33;;;;;-0.95;64.93;101865.47;5072182;28;45506;-65
2022/12/18 00:08:34;;;;;;;;;46.67;36.67;;;;;-0.90;65.62;101869.03;5060514;28;45371;-61
2022/12/18 00:11:08;;;;;;;;;48.67;39.00;;;;;-0.92;65.09;101858.53;5062816;28;45442;-60
2022/12/18 00:13:35;;;;;;;;;49.67;44.33;;;;;-0.85;65.26;101862.13;5060334;28;45393;-63
2022/12/18 00:16:05;;;;;;;;;45.00;45.00;;;;;-0.89;64.92;101847.28;5060191;28;45482;-59
2022/12/18 00:18:31;;;;;;;;;50.00;43.00;;;;;-0.97;64.77;101828.03;5040841;28;46084;-59
2022/12/18 00:21:04;;;;;;;;;72.33;48.00;;;;;-0.80;65.25;101859.53;5058165;28;45573;-59
2022/12/18 00:23:31;;;;;;;;;55.33;46.67;;;;;-0.90;65.16;101837.69;5057803;28;45342;-58
2022/12/18 00:26:04;;;;;;;;;54.67;40.00;;;;;-0.83;65.10;101844.72;5058017;28;45246;-60
2022/12/18 00:28:33;;;;;;;;;50.67;44.33;;;;;-0.76;64.40;101864.84;5057991;28;46049;-59
2022/12/18 00:31:03;;;;;;;;;51.33;44.67;;;;;-0.73;64.71;101859.63;5058119;28;45441;-60
2022/12/18 00:33:29;;;;;;;;;43.00;43.00;;;;;-0.77;64.54;101852.63;5077075;28;46624;-59
2022/12/18 00:35:54;;;;;;;;;54.00;42.00;;;;;-0.73;64.37;101862.25;5078215;28;45358;-56
2022/12/18 00:38:20;;;;;;;;;51.67;43.00;;;;;-0.74;64.83;101863.13;5076342;28;46069;-59
2022/12/18 00:40:45;;;;;;;;;40.33;38.00;;;;;-0.79;64.27;101853.47;5077847;28;45333;-61
2022/12/18 00:43:10;;;;;;;;;52.00;40.33;;;;;-0.69;64.22;101868.38;5077487;28;47284;-60
2022/12/18 00:45:36;;;;;;;;;57.33;44.33;;;;;-0.70;64.54;101861.41;5078301;28;45508;-59
2022/12/18 00:48:01;;;;;;;;;57.33;36.00;;;;;-0.77;64.43;101852.63;5077360;28;45328;-61
2022/12/18 00:50:27;;;;;;;;;67.33;51.00;;;;;-0.73;64.52;101872.69;5074051;28;45332;-61
2022/12/18 00:52:52;;;;;;;;;43.33;37.33;;;;;-0.74;64.43;101867.47;5075550;27;46982;-59
2022/12/18 00:55:18;;;;;;;;;57.00;42.67;;;;;-0.76;64.72;101867.44;5078264;28;45429;-60
2022/12/18 00:57:43;;;;;;;;;66.33;52.00;;;;;-0.79;64.40;101853.47;5077608;28;45483;-60
2022/12/18 01:00:13;;;;;;;;;48.67;41.33;;;;;-0.85;64.85;101859.50;5077624;28;45449;-62
2022/12/18 01:02:38;;;;;;;;;58.67;47.00;;;;;-0.88;65.15;101859.47;5078042;28;45303;-60
2022/12/18 01:05:04;;;;;;;;;50.33;42.67;;;;;-0.90;65.02;101853.38;5059535;28;45348;-60
2022/12/18 01:07:30;;;;;;;;;54.67;43.67;;;;;-0.93;65.21;101842.88;5077627;28;45461;-60
2022/12/18 01:09:55;;;;;;;;;49.00;43.00;;;;;-0.88;65.55;101846.44;5078119;27;45291;-59
2022/12/18 01:12:20;;;;;;;;;55.67;47.33;;;;;-0.81;64.70;101852.56;5060628;27;45847;-60
2022/12/18 01:14:46;;;;;;;;;54.67;45.00;;;;;-0.81;64.76;101843.00;5058839;28;45608;-60
2022/12/18 01:17:11;;;;;;;;;54.00;43.33;;;;;-0.85;64.33;101842.97;5058374;28;45288;-59
2022/12/18 01:19:36;;;;;;;;;32.67;30.33;;;;;-0.83;64.84;101836.88;5057785;28;45284;-60
2022/12/18 01:22:02;;;;;;;;;49.00;40.00;;;;;-0.92;64.47;101826.34;5060728;28;45403;-58
2022/12/18 01:24:27;;;;;;;;;48.33;37.67;;;;;-0.85;64.58;101840.34;5078305;28;45428;-58
2022/12/18 01:26:52;;;;;;;;;52.67;41.33;;;;;-0.84;64.85;101845.59;5077592;27;45310;-58
2022/12/18 01:29:18;;;;;;;;;48.67;39.67;;;;;-0.87;64.59;101840.34;5077245;27;45459;-61
2022/12/18 01:31:43;;;;;;;;;51.67;44.33;;;;;-0.87;65.43;101850.78;5077126;27;45420;-59
2022/12/18 01:34:10;;;;;;;;;48.00;42.67;;;;;-0.89;64.61;101844.69;5059138;28;45613;-58
2022/12/18 01:36:38;;;;;;;;;48.67;37.67;;;;;-0.86;64.36;101857.75;5077244;28;45378;-60
2022/12/18 01:39:12;;;;;;;;;22.67;16.33;;;;;-0.85;65.12;101851.69;5077367;28;45247;-60
2022/12/18 01:44:59;;;;;;;;;50.33;43.00;;;;;-0.84;64.91;101837.75;5077446;28;45420;-59
2022/12/18 01:47:24;;;;;;;;;40.00;36.33;;;;;-0.87;64.95;101837.72;5076244;27;46319;-62
2022/12/18 01:49:50;;;;;;;;;48.33;39.33;;;;;-0.97;64.53;101830.66;5076810;28;45545;-62
2022/12/18 01:52:17;;;;;;;;;32.67;28.00;;;;;-1.00;64.81;101828.00;5076976;28;45339;-63
2022/12/18 01:54:44;;;;;;;;;45.33;42.33;;;;;-0.86;64.91;101842.09;5076919;28;45399;-60
2022/12/18 01:57:10;;;;;;;;;47.33;42.00;;;;;-0.90;65.07;101827.25;5076330;28;46452;-61
2022/12/18 01:59:36;;;;;;;;;67.67;45.33;;;;;-0.97;64.78;101813.25;5075428;28;45264;-63
2022/12/18 02:02:03;;;;;;;;;52.33;37.67;;;;;-0.94;64.41;101825.44;5075870;27;45490;-59
2022/12/18 02:04:29;;;;;;;;;43.00;36.33;;;;;-1.07;64.98;101806.16;5057956;28;46070;-58
2022/12/18 02:07:08;;;;;;;;;38.00;33.00;;;;;-1.02;64.97;101808.84;5058336;28;46740;-56
2022/12/18 02:09:44;;;;;;;;;46.67;39.67;;;;;-0.97;64.71;101812.38;5052534;28;45364;-58
2022/12/18 02:12:34;;;;;;;;;48.33;41.33;;;;;-1.05;65.01;101798.34;5077361;28;45467;-60
2022/12/18 02:15:12;;;;;;;;;53.67;42.00;;;;;-1.08;64.99;101804.41;5076061;28;45461;-64
2022/12/18 02:17:47;;;;;;;;;40.67;30.00;;;;;-1.05;65.45;101814.00;5074176;28;45275;-60
2022/12/18 02:20:19;;;;;;;;;48.67;36.67;;;;;-1.04;65.04;101805.31;5075292;28;45508;-58
2022/12/18 02:23:05;;;;;;;;;47.33;42.00;;;;;-1.14;65.07;101804.38;5071947;28;46119;-57
2022/12/18 02:25:50;;;;;;;;;52.33;41.33;;;;;-1.11;65.32;101803.50;5063575;28;45487;-59
2022/12/18 02:28:19;;;;;;;;;38.00;30.00;;;;;-1.13;65.10;101800.88;5048360;28;45468;-57
2022/12/18 02:30:48;;;;;;;;;54.33;42.33;;;;;-1.10;65.03;101794.81;5075321;27;45381;-59
2022/12/18 02:33:15;;;;;;;;;55.67;45.00;;;;;-1.17;64.79;101791.28;5069206;28;45269;-59
2022/12/18 02:35:43;;;;;;;;;59.33;45.00;;;;;-1.15;64.97;101797.41;5076717;28;45591;-58
2022/12/18 02:38:09;;;;;;;;;48.67;45.00;;;;;-1.22;65.30;101796.44;5058463;28;45386;-59
2022/12/18 02:40:37;;;;;;;;;63.67;40.00;;;;;-1.15;65.51;101793.91;5076291;28;45209;-61
2022/12/18 02:43:14;;;;;;;;;45.33;39.67;;;;;-1.16;65.73;101789.56;5073372;28;45450;-60
2022/12/18 02:45:49;;;;;;;;;41.33;41.33;;;;;-1.25;66.21;101767.69;5076678;28;45318;-57
2022/12/18 02:48:16;;;;;;;;;53.00;41.33;;;;;-1.12;65.92;101789.59;5075834;28;45424;-57
2022/12/18 02:50:50;;;;;;;;;51.33;42.33;;;;;-1.13;65.20;101779.13;5070777;28;45449;-60
2022/12/18 02:53:20;;;;;;;;;52.67;37.67;;;;;-1.15;65.72;101775.63;5055721;28;45469;-60
2022/12/18 02:56:07;;;;;;;;;45.67;43.67;;;;;-1.19;65.25;101780.78;5055202;28;45291;-59
2022/12/18 02:58:58;;;;;;;;;39.00;35.67;;;;;-1.23;65.47;101773.81;5055665;28;46182;-59
2022/12/18 03:01:29;;;;;;;;;46.00;36.00;;;;;-1.22;65.66;101774.69;5054779;28;45248;-61
2022/12/18 03:04:18;;;;;;;;;57.33;37.33;;;;;-1.24;65.80;101755.53;5055643;28;45346;-62
2022/12/18 03:06:49;;;;;;;;;37.67;36.33;;;;;-1.23;65.70;101763.34;5075027;28;45209;-60
2022/12/18 03:09:34;;;;;;;;;47.67;42.00;;;;;-1.37;65.65;101749.28;5054070;28;45447;-61
2022/12/18 03:12:24;;;;;;;;;51.33;43.67;;;;;-1.35;65.89;101764.97;5055799;28;45410;-59
2022/12/18 03:15:10;;;;;;;;;34.33;28.00;;;;;-1.32;66.34;101773.69;5037629;28;45379;-60
2022/12/18 03:17:38;;;;;;;;;49.33;42.00;;;;;-1.34;65.99;101771.94;5055771;28;45304;-60
2022/12/18 03:20:12;;;;;;;;;59.33;43.00;;;;;-1.38;66.15;101773.63;5055494;28;45406;-57
2022/12/18 03:22:38;;;;;;;;;43.33;38.00;;;;;-1.49;66.48;101770.00;5075429;28;45352;-60
2022/12/18 03:25:09;;;;;;;;;53.67;38.33;;;;;-1.42;66.49;101782.28;5076104;27;45311;-59
2022/12/18 03:27:38;;;;;;;;;51.33;43.67;;;;;-1.54;66.18;101766.50;5075830;27;45334;-58
2022/12/18 03:30:12;;;;;;;;;45.67;38.33;;;;;-1.51;66.23;101766.53;5075193;27;47084;-61
2022/12/18 03:32:48;;;;;;;;;49.33;42.00;;;;;-1.47;66.11;101778.72;5072301;27;45342;-60
2022/12/18 03:35:19;;;;;;;;;59.33;45.00;;;;;-1.45;65.89;101777.00;5078490;28;45483;-57
2022/12/18 03:37:45;;;;;;;;;29.33;25.00;;;;;-1.53;66.74;101774.34;5078238;28;45445;-56
2022/12/18 03:40:10;;;;;;;;;64.67;47.00;;;;;-1.61;66.65;101746.38;5076892;28;46121;-61
2022/12/18 03:42:48;;;;;;;;;46.33;39.00;;;;;-1.68;66.33;101761.09;5063228;27;45356;-59
2022/12/18 03:45:20;;;;;;;;;48.00;40.00;;;;;-1.69;66.57;101774.09;5057803;28;45467;-59
2022/12/18 03:48:08;;;;;;;;;58.00;44.67;;;;;-1.71;66.70;101779.28;5057516;28;45251;-57
2022/12/18 03:50:42;;;;;;;;;49.33;46.33;;;;;-1.79;66.93;101775.72;5058421;28;46210;-60
2022/12/18 03:53:42;;;;;;;;;47.33;45.33;;;;;-1.75;67.00;101771.41;5058931;28;45301;-55
2022/12/18 03:56:09;;;;;;;;;64.67;48.33;;;;;-1.73;67.41;101765.38;5065482;28;45361;-57
2022/12/18 03:58:37;;;;;;;;;44.67;39.33;;;;;-1.70;67.25;101754.97;5077003;27;46172;-64
2022/12/18 04:01:09;;;;;;;;;51.33;45.00;;;;;-1.75;67.37;101734.91;5078907;28;46538;-58
2022/12/18 04:03:36;;;;;;;;;63.00;41.67;;;;;-1.73;67.21;101748.84;5078564;28;45540;-60
2022/12/18 04:06:03;;;;;;;;;53.33;48.00;;;;;-1.71;67.52;101739.31;5078551;28;45441;-58
2022/12/18 04:08:29;;;;;;;;;41.33;41.33;;;;;-1.71;67.36;101734.09;5060333;28;45308;-60
2022/12/18 04:10:54;;;;;;;;;52.67;40.33;;;;;-1.72;67.45;101742.75;5078522;28;46619;-57
2022/12/18 04:13:39;;;;;;;;;51.00;44.33;;;;;-1.76;66.71;101749.69;5075254;28;45482;-59
2022/12/18 04:16:04;;;;;;;;;43.67;38.33;;;;;-1.80;66.70;101747.91;5078407;28;45336;-56
2022/12/18 04:18:30;;;;;;;;;40.67;34.67;;;;;-1.92;67.81;101732.09;5078452;28;45573;-60
2022/12/18 04:20:55;;;;;;;;;48.00;42.33;;;;;-1.88;67.23;101745.19;5075570;28;46220;-60
2022/12/18 04:23:21;;;;;;;;;53.33;45.00;;;;;-1.84;67.16;101762.59;5078413;28;45294;-60
2022/12/18 04:25:47;;;;;;;;;51.33;43.00;;;;;-1.86;67.28;101758.25;5060510;28;45398;-60
2022/12/18 04:28:13;;;;;;;;;57.00;44.67;;;;;-1.96;68.02;101738.97;5060868;28;45259;-61
2022/12/18 04:30:38;;;;;;;;;56.00;45.33;;;;;-1.92;68.22;101740.78;5062475;28;45258;-59
2022/12/18 04:33:08;;;;;;;;;42.00;32.00;;;;;-1.85;67.36;101745.22;5057593;28;45276;-57
2022/12/18 04:35:33;;;;;;;;;61.67;44.67;;;;;-1.92;68.09;101738.19;5057275;28;45442;-60
2022/12/18 04:37:59;;;;;;;;;54.67;44.33;;;;;-1.95;67.96;101740.75;5067864;28;45468;-59
2022/12/18 04:40:25;;;;;;;;;58.00;43.00;;;;;-1.95;67.93;101743.38;5067596;28;46319;-58
2022/12/18 04:42:50;;;;;;;;;47.33;43.00;;;;;-1.88;67.99;101755.63;5057124;28;45556;-57
2022/12/18 04:45:16;;;;;;;;;33.33;33.33;;;;;-1.91;67.71;101747.75;5076226;28;45319;-58
2022/12/18 04:47:41;;;;;;;;;54.67;43.33;;;;;-1.88;67.89;101745.19;5077302;28;45407;-56
2022/12/18 04:50:07;;;;;;;;;47.67;38.00;;;;;-1.80;68.11;101754.00;5077662;28;45448;-59
2022/12/18 04:52:32;;;;;;;;;53.33;40.00;;;;;-1.73;67.34;101767.09;5078138;28;45338;-58
2022/12/18 04:54:57;;;;;;;;;58.67;47.67;;;;;-1.82;67.60;101747.88;5077995;28;45413;-59
2022/12/18 04:57:23;;;;;;;;;66.67;43.67;;;;;-1.80;67.34;101748.78;5060025;28;45485;-59
2022/12/18 04:59:48;;;;;;;;;54.67;39.00;;;;;-1.81;67.87;101757.47;5077671;28;46227;-59
2022/12/18 05:02:14;;;;;;;;;46.33;37.67;;;;;-1.79;67.31;101757.47;5077846;28;45288;-58
2022/12/18 05:04:39;;;;;;;;;49.67;43.67;;;;;-1.75;67.73;101767.09;5069434;28;45432;-58
2022/12/18 05:07:04;;;;;;;;;56.33;42.00;;;;;-1.80;67.59;101755.72;5060870;27;45197;-57
2022/12/18 05:09:30;;;;;;;;;42.33;36.33;;;;;-1.79;67.64;101755.75;5057683;28;45320;-58
2022/12/18 05:11:55;;;;;;;;;54.33;44.33;;;;;-1.75;67.94;101761.00;5057683;28;45363;-59
2022/12/18 05:14:21;;;;;;;;;46.67;41.33;;;;;-1.74;67.89;101761.00;5064511;28;45575;-58
2022/12/18 05:16:46;;;;;;;;;39.33;39.33;;;;;-1.83;67.88;101773.91;5059832;28;45367;-59
2022/12/18 05:19:12;;;;;;;;;47.67;36.67;;;;;-1.88;67.46;101757.34;5077184;28;45308;-62
2022/12/18 05:21:37;;;;;;;;;55.00;42.00;;;;;-1.80;68.16;101771.38;5059240;28;45392;-61
2022/12/18 05:24:03;;;;;;;;;51.67;41.33;;;;;-1.83;67.95;101759.16;5077443;28;45379;-60
2022/12/18 05:26:28;;;;;;;;;53.00;39.00;;;;;-1.84;67.73;101762.59;5059546;28;45748;-59
2022/12/18 05:28:53;;;;;;;;;61.67;45.00;;;;;-1.89;67.70;101779.94;5058792;28;45341;-59
2022/12/18 05:31:19;;;;;;;;;66.67;47.33;;;;;-2.01;68.05;101764.13;5053081;28;45453;-61
2022/12/18 05:33:44;;;;;;;;;44.00;39.33;;;;;-1.85;67.54;101784.31;5057043;28;45414;-56
2022/12/18 05:36:11;;;;;;;;;53.00;43.67;;;;;-1.83;68.29;101785.22;5066884;28;45338;-60
2022/12/18 05:38:38;;;;;;;;;50.33;42.00;;;;;-1.90;67.95;101772.97;5076666;28;46623;-59
2022/12/18 05:41:05;;;;;;;;;56.33;45.00;;;;;-1.85;67.72;101771.28;5075533;27;45308;-59
2022/12/18 05:43:31;;;;;;;;;48.67;45.00;;;;;-1.79;67.99;101781.81;5073617;28;45389;-57
2022/12/18 05:45:57;;;;;;;;;46.67;38.33;;;;;-1.80;68.04;101780.06;5062344;28;45430;-59
2022/12/18 05:48:23;;;;;;;;;52.00;44.33;;;;;-1.88;68.30;101759.94;5069727;28;45827;-61
2022/12/18 05:50:49;;;;;;;;;60.67;49.00;;;;;-1.85;68.23;101754.78;5058191;28;45261;-60
2022/12/18 05:53:19;;;;;;;;;47.67;40.00;;;;;-1.75;67.80;101763.59;5075687;28;45389;-57
2022/12/18 05:55:45;;;;;;;;;46.67;39.67;;;;;-1.73;67.53;101767.09;5076958;28;45620;-63
2022/12/18 05:58:12;;;;;;;;;50.33;43.00;;;;;-1.74;67.36;101762.75;5075417;28;46071;-58
2022/12/18 06:00:41;;;;;;;;;53.00;36.00;;;;;-1.75;68.19;101754.03;5069420;28;45505;-59
2022/12/18 06:03:08;;;;;;;;;54.67;43.33;;;;;-1.75;67.56;101750.56;5056559;28;45432;-59
2022/12/18 06:05:39;;;;;;;;;51.33;40.67;;;;;-1.72;67.20;101751.47;5067392;28;45341;-61
2022/12/18 06:08:08;;;;;;;;;56.33;45.67;;;;;-1.75;67.82;101750.56;5076557;28;45471;-58
2022/12/18 06:10:34;;;;;;;;;46.67;40.33;;;;;-1.83;67.52;101725.25;5075428;28;45254;-59
2022/12/18 06:13:00;;;;;;;;;50.00;34.67;;;;;-1.71;67.72;101747.13;5076808;28;45303;-58
2022/12/18 06:15:25;;;;;;;;;37.67;35.67;;;;;-1.68;67.35;101747.19;5075796;28;45740;-63
2022/12/18 06:17:51;;;;;;;;;49.67;39.67;;;;;-1.66;67.49;101729.81;5053120;28;46119;-59
2022/12/18 06:20:16;;;;;;;;;51.33;42.00;;;;;-1.63;67.21;101742.88;5068884;28;45348;-57
2022/12/18 06:22:41;;;;;;;;;51.33;36.67;;;;;-1.65;67.67;101736.78;5056845;28;45489;-58
2022/12/18 06:25:07;;;;;;;;;47.33;38.33;;;;;-1.60;66.48;101750.75;5072660;28;45294;-57
2022/12/18 06:27:33;;;;;;;;;46.00;38.33;;;;;-1.56;66.84;101747.34;5073336;28;46323;-57
2022/12/18 06:29:59;;;;;;;;;44.33;40.33;;;;;-1.61;67.13;101733.34;5057620;28;45474;-59
2022/12/18 06:32:25;;;;;;;;;64.67;42.33;;;;;-1.67;67.21;101733.28;5064794;28;45445;-60
2022/12/18 06:34:50;;;;;;;;;49.33;41.33;;;;;-1.65;66.19;101742.00;5056662;28;45635;-60
2022/12/18 06:37:16;;;;;;;;;41.67;33.67;;;;;-1.64;66.87;101738.53;5065901;28;46945;-57
2022/12/18 06:39:41;;;;;;;;;53.33;42.67;;;;;-1.66;66.63;101742.88;5064283;28;45333;-59
2022/12/18 06:42:07;;;;;;;;;45.67;39.33;;;;;-1.70;66.60;101738.44;5057957;28;45888;-59
2022/12/18 06:44:32;;;;;;;;;43.33;37.67;;;;;-1.62;66.43;101742.03;5056323;28;45585;-59
2022/12/18 06:46:57;;;;;;;;;48.67;41.33;;;;;-1.65;66.50;101748.09;5075445;28;46054;-56
2022/12/18 06:49:23;;;;;;;;;48.33;40.67;;;;;-1.68;66.47;101741.97;5076306;28;45516;-56
2022/12/18 06:51:48;;;;;;;;;57.00;42.00;;;;;-1.69;67.26;101735.88;5076244;28;45424;-57
2022/12/18 06:54:13;;;;;;;;;49.00;37.67;;;;;-1.58;66.47;101738.59;5073850;28;45622;-58
2022/12/18 06:56:39;;;;;;;;;50.00;44.33;;;;;-1.57;66.35;101729.91;5069642;28;46138;-57
2022/12/18 06:59:04;;;;;;;;;50.33;35.67;;;;;-1.72;67.13;101704.53;5054168;28;45648;-59
2022/12/18 07:01:29;;;;;;;;;40.00;30.67;;;;;-1.61;66.68;101728.13;5057180;28;45295;-59
2022/12/18 07:03:56;;;;;;;;;65.00;43.67;;;;;-1.63;66.69;101708.97;5058813;28;45556;-57
2022/12/18 07:06:24;;;;;;;;;48.00;35.00;;;;;-1.62;66.51;101701.19;5075953;28;46160;-60
2022/12/18 07:08:51;;;;;;;;;51.67;42.00;;;;;-1.61;66.40;101708.13;5058382;28;45502;-57
2022/12/18 07:11:18;;;;;;;;;55.33;44.33;;;;;-1.61;66.37;101705.53;5071118;28;45461;-59
2022/12/18 07:13:44;;;;;;;;;50.33;42.67;;;;;-1.57;66.22;101706.44;5057896;28;45406;-59
2022/12/18 07:16:20;;;;;;;;;50.33;40.67;;;;;-1.51;65.89;101724.78;5074886;28;45472;-57
2022/12/18 07:18:46;;;;;;;;;53.67;40.67;;;;;-1.50;66.40;101721.31;5078457;28;45655;-59
2022/12/18 07:21:14;;;;;;;;;43.00;39.33;;;;;-1.53;65.77;101700.41;5056057;28;45442;-57
2022/12/18 07:23:40;;;;;;;;;54.33;43.00;;;;;-1.50;65.83;101713.47;5075701;28;45630;-57
2022/12/18 07:26:11;;;;;;;;;45.67;40.33;;;;;-1.54;66.07;101709.97;5077249;28;45458;-60
2022/12/18 07:28:38;;;;;;;;;49.00;38.00;;;;;-1.52;65.58;101712.59;5077855;28;45433;-59
2022/12/18 07:31:06;;;;;;;;;41.00;36.67;;;;;-1.57;65.91;101714.25;5077888;28;45213;-58
2022/12/18 07:33:32;;;;;;;;;46.67;42.33;;;;;-1.65;66.36;101700.28;5079185;28;45663;-57
2022/12/18 07:36:03;;;;;;;;;52.33;40.33;;;;;-1.59;66.75;101708.16;5075010;28;46273;-58
2022/12/18 07:38:29;;;;;;;;;7.00;1.00;;;;;-1.57;66.41;101719.47;5079265;28;45341;-56
2022/12/18 07:40:59;;;;;;;;;51.33;40.67;;;;;-1.57;66.16;101728.16;5059270;28;45512;-58
2022/12/18 07:43:25;;;;;;;;;55.33;41.00;;;;;-1.65;66.12;101713.31;5061318;28;45713;-58
2022/12/18 07:45:50;;;;;;;;;41.33;33.00;;;;;-1.55;65.39;101728.22;5076919;28;45833;-59
2022/12/18 07:48:16;;;;;;;;;48.67;36.33;;;;;-1.61;65.79;101728.13;5078722;28;45275;-57
2022/12/18 07:50:41;;;;;;;;;51.67;41.67;;;;;-1.61;66.10;101722.91;5077057;28;45220;-60
2022/12/18 07:53:07;;;;;;;;;41.00;33.00;;;;;-1.71;65.86;101708.88;5079093;28;45233;-59
2022/12/18 07:55:32;;;;;;;;;59.33;40.67;;;;;-1.47;65.82;101747.44;5077894;28;45245;-60
2022/12/18 07:58:01;;;;;;;;;44.67;43.00;;;;;-1.43;65.76;101735.28;5079433;28;45268;-61
2022/12/18 08:00:26;;;;;;;;;51.00;37.00;;;;;-1.53;65.38;101713.44;5078672;28;45389;-59
2022/12/18 08:02:52;;;;;;;;;52.67;44.33;;;;;-1.43;65.68;101730.97;5079653;28;45351;-60
2022/12/18 08:05:17;;;;;;;;;46.00;39.67;;;;;-1.39;66.17;101735.34;5076281;28;46242;-58
2022/12/18 08:07:42;;;;;;;;;47.67;39.33;;;;;-1.40;65.47;101712.72;5078747;28;45325;-58
2022/12/18 08:10:08;;;;;;;;;51.00;43.67;;;;;-1.38;64.97;101710.13;5077572;28;45655;-58
2022/12/18 08:12:33;;;;;;;;;52.67;43.00;;;;;-1.32;65.35;101715.41;5072352;28;47225;-54
2022/12/18 08:14:59;;;;;;;;;45.00;33.67;;;;;-1.40;65.27;101702.28;5076563;28;45461;-59
2022/12/18 08:17:24;;;;;;;;;51.67;44.00;;;;;-1.34;65.11;101712.78;5070452;28;45505;-59
2022/12/18 08:19:50;;;;;;;;;53.67;44.33;;;;;-1.31;64.82;101723.25;5061597;28;45412;-58
2022/12/18 08:22:15;;;;;;;;;50.33;42.00;;;;;-1.34;64.71;101731.03;5072831;28;45544;-58
2022/12/18 08:24:40;;;;;;;;;50.00;45.00;;;;;-1.40;65.18;101733.59;5077377;28;45359;-57
2022/12/18 08:27:06;;;;;;;;;54.00;41.33;;;;;-1.36;65.03;101724.94;5077755;28;45212;-58
2022/12/18 08:29:31;;;;;;;;;44.67;40.67;;;;;-1.30;64.72;101742.41;5074298;28;45287;-57
2022/12/18 08:31:57;;;;;;;;;61.33;44.33;;;;;-1.29;65.04;101731.13;5077432;28;45530;-56
2022/12/18 08:34:23;;;;;;;;;47.33;41.00;;;;;-1.23;64.92;101742.47;5075644;27;46246;-58
2022/12/18 08:36:48;;;;;;;;;47.00;39.33;;;;;-1.14;65.19;101751.28;5077896;28;45263;-58
2022/12/18 08:39:13;;;;;;;;;57.33;38.67;;;;;-1.12;64.59;101754.78;5077726;28;45424;-56
2022/12/18 08:41:39;;;;;;;;;48.67;41.33;;;;;-1.13;63.87;101747.81;5058877;28;45655;-58
2022/12/18 08:46:48;;;;;;;;;47.33;42.00;;;;;-1.23;64.97;101757.28;5077041;28;45182;-58
2022/12/18 08:49:14;;;;;;;;;50.67;42.67;;;;;-1.26;64.30;101752.03;5093824;27;45362;-58
2022/12/18 08:51:40;;;;;;;;;56.67;46.67;;;;;-1.23;64.51;101758.13;5076123;28;45540;-60
2022/12/18 08:54:06;;;;;;;;;41.67;30.33;;;;;-1.24;64.48;101761.63;5078113;27;45350;-60
2022/12/18 08:56:31;;;;;;;;;51.00;35.33;;;;;-1.29;64.44;101768.53;5077979;27;45926;-58
2022/12/18 08:58:57;;;;;;;;;41.33;35.33;;;;;-1.23;64.73;101771.19;5078252;27;45432;-58
2022/12/18 09:01:24;;;;;;;;;46.00;37.67;;;;;-1.26;63.95;101773.78;5076683;27;45341;-58
2022/12/18 09:03:50;;;;;;;;;55.33;44.33;;;;;-1.22;64.49;101770.34;5066470;27;45566;-58
2022/12/18 09:06:17;;;;;;;;;46.67;40.67;;;;;-1.28;64.38;101749.41;5071113;28;45311;-58
2022/12/18 09:08:44;;;;;;;;;47.67;42.33;;;;;-1.12;64.29;101758.25;5075838;28;45394;-60
2022/12/18 09:11:14;;;;;;;;;62.67;47.33;;;;;-1.11;63.73;101751.31;5066931;28;45561;-57
2022/12/18 09:13:39;;;;;;;;;47.67;40.67;;;;;-1.10;63.68;101758.28;5077304;28;45362;-57
2022/12/18 09:16:05;;;;;;;;;51.33;41.33;;;;;-1.06;64.29;101750.47;5075711;28;45244;-57
2022/12/18 09:18:30;;;;;;;;;54.00;44.33;;;;;-0.99;64.30;101754.03;5052308;28;45435;-57
2022/12/18 09:20:56;;;;;;;;;53.33;44.00;;;;;-1.01;63.52;101737.50;5075669;28;45481;-63
2022/12/18 09:23:21;;;;;;;;;44.67;40.33;;;;;-0.94;63.66;101744.50;5063335;28;46104;-59
2022/12/18 09:25:47;;;;;;;;;63.33;48.00;;;;;-0.88;64.47;101739.34;5056563;28;45214;-58
2022/12/18 09:28:14;;;;;;;;;49.67;40.00;;;;;-0.87;64.05;101746.31;5039055;28;45336;-58
2022/12/18 09:30:43;;;;;;;;;39.33;26.67;;;;;-0.93;63.91;101735.81;5072802;28;46056;-58
2022/12/18 09:33:09;;;;;;;;;48.33;39.33;;;;;-1.00;63.93;101726.19;5076382;28;45389;-57
2022/12/18 09:35:38;;;;;;;;;44.67;39.00;;;;;-1.02;64.09;101725.28;5070879;28;45410;-58
2022/12/18 09:38:04;;;;;;;;;59.33;38.33;;;;;-0.90;63.83;101733.25;5077309;28;45395;-59
2022/12/18 09:40:36;;;;;;;;;55.33;45.00;;;;;-0.93;63.60;101735.81;5077555;28;45605;-60
2022/12/18 09:43:04;;;;;;;;;51.00;40.67;;;;;-0.91;63.61;101718.44;5076956;28;45310;-62
2022/12/18 09:45:45;;;;;;;;;39.33;37.00;;;;;-0.85;63.55;101735.88;5069980;28;45538;-60
2022/12/18 09:48:20;;;;;;;;;68.67;48.67;;;;;-0.77;63.40;101742.94;5056812;28;45375;-61
2022/12/18 09:50:47;;;;;;;;;57.33;40.67;;;;;-0.86;63.28;101721.94;5039002;28;45594;-61
2022/12/18 09:53:21;;;;;;;;;56.00;41.33;;;;;-0.66;64.03;101735.16;5064128;28;45388;-61
2022/12/18 09:55:48;;;;;;;;;42.67;42.00;;;;;-0.54;62.88;101731.78;5069557;28;45319;-60
2022/12/18 09:58:34;;;;;;;;;64.67;49.00;;;;;-0.57;63.21;101718.69;5076701;28;45358;-65
2022/12/18 10:01:00;;;;;;;;;55.33;45.00;;;;;-0.49;62.92;101722.25;5077617;28;45411;-63
2022/12/18 10:03:26;;;;;;;;;53.67;43.33;;;;;-0.52;62.45;101709.13;5061775;28;45478;-65
2022/12/18 10:06:13;;;;;;;;;63.33;45.00;;;;;-0.29;62.88;101731.09;5056809;28;45273;-64
2022/12/18 10:08:41;;;;;;;;;52.67;48.00;;;;;-0.25;62.33;101722.44;5070934;28;45406;-65
2022/12/18 10:11:48;;;;;;;;;55.67;48.33;;;;;-0.20;62.18;101715.47;5076785;28;45347;-64
2022/12/18 10:14:36;;;;;;;;;47.33;44.33;;;;;-0.14;62.38;101712.88;5072866;27;45739;-64
2022/12/18 10:17:33;;;;;;;;;46.67;37.33;;;;;-0.08;62.25;101715.53;5071825;28;45378;-64
2022/12/18 10:20:04;;;;;;;;;64.00;48.00;;;;;-0.04;61.83;101722.53;5056214;28;45359;-64
2022/12/18 10:22:57;;;;;;;;;59.67;41.33;;;;;0.04;62.20;101709.50;5057666;28;45591;-66
2022/12/18 10:25:41;;;;;;;;;45.67;42.00;;;;;0.16;61.72;101708.69;5056375;28;45407;-62
2022/12/18 10:28:12;;;;;;;;;52.00;37.00;;;;;0.10;61.20;101704.28;5071278;28;45220;-63
2022/12/18 10:30:38;;;;;;;;;52.67;36.33;;;;;0.10;61.79;101708.66;5075218;27;45473;-65
2022/12/18 10:33:04;;;;;;;;;53.00;45.00;;;;;0.08;61.75;101694.69;5059300;28;45517;-61
2022/12/18 10:35:30;;;;;;;;;56.33;43.67;;;;;0.21;62.03;101701.72;5075160;28;46048;-62
2022/12/18 10:38:03;;;;;;;;;50.67;43.00;;;;;0.34;61.21;101703.53;5076009;28;45275;-64
2022/12/18 10:40:28;;;;;;;;;49.67;44.33;;;;;0.47;61.09;101700.06;5075921;28;45451;-62
2022/12/18 10:43:06;;;;;;;;;57.67;48.00;;;;;0.34;60.88;101672.13;5076302;28;45523;-64
2022/12/18 10:45:31;;;;;;;;;49.33;38.67;;;;;0.56;60.98;101689.63;5067297;28;46877;-64
2022/12/18 10:47:57;;;;;;;;;54.67;47.33;;;;;0.74;61.27;101698.41;5079750;28;45347;-63
2022/12/18 10:50:31;;;;;;;;;32.67;28.67;;;;;0.74;60.34;101690.53;5079919;28;45399;-63
2022/12/18 10:53:00;;;;;;;;;53.67;44.67;;;;;0.71;59.97;101688.78;5079847;28;45746;-66
2022/12/18 10:55:32;;;;;;;;;56.33;44.67;;;;;0.64;60.29;101680.91;5075571;28;45644;-62
2022/12/18 10:58:21;;;;;;;;;57.67;46.67;;;;;0.61;60.51;101668.69;5041054;28;45390;-61
2022/12/18 11:01:09;;;;;;;;;57.67;48.33;;;;;0.78;59.93;101684.41;5077935;28;45471;-65
2022/12/18 11:03:54;;;;;;;;;61.00;47.00;;;;;0.76;60.51;101671.34;5060618;28;45617;-62
2022/12/18 11:06:24;;;;;;;;;57.00;45.67;;;;;0.92;59.98;101674.88;5059266;28;46153;-62
2022/12/18 11:09:19;;;;;;;;;58.67;46.33;;;;;0.92;60.21;101677.50;5041125;28;45470;-62
2022/12/18 11:11:53;;;;;;;;;60.33;48.67;;;;;0.93;60.33;101668.75;5063725;28;45754;-61
2022/12/18 11:14:42;;;;;;;;;58.00;45.00;;;;;0.99;59.93;101668.75;5056654;28;45466;-64
2022/12/18 11:17:34;;;;;;;;;55.67;45.00;;;;;1.00;59.99;101672.22;5074328;28;46286;-64
2022/12/18 11:20:04;;;;;;;;;43.67;43.33;;;;;1.06;60.37;101672.25;5074371;28;45433;-64
2022/12/18 11:22:32;;;;;;;;;55.33;45.67;;;;;1.20;60.00;101664.38;5059097;28;45434;-63
2022/12/18 11:25:12;;;;;;;;;58.00;45.00;;;;;1.24;59.43;101673.97;5059369;28;45557;-63